To NAV CANADA Home Page Login to a new session Search on AWWS site Disclaimer Vers la page française équivalente Tips FAQ What's new on the site To the Forecasts and Observations / NOTAM section To "File a Flight Plan" website Publications and other links Update of the User's profile FIC Telephone Numbers My Weather Data Folder Route Weather Data Regional Weather Data Local Weather Data To the Forecasts and Observations / NOTAM section
Request Generated 11/13/2018 at 18:56:40 UTC . Weather information available at that time is displayed.

METAR/TAF

SACHS HARBOUR (DAVID NASOGALUAK JR. SAARYUAQ)/NT    

SPECI CYSY 131832Z 01020KT 1SM IC DRSN BR BKN004 M27/M30 A3039 RMK ST7 SLP307=
METAR CYSY 131800Z 01021KT 1/2SM IC BLSN OVC004 M25/M29 A3039 RMK BLSN7ST1 SLP309=
METAR CYSY 131700Z 01019KT 1SM IC DRSN BR OVC004 M25/M29 A3039 RMK ST8 BCFG SLP309=
METAR CYSY 131600Z 01020KT 1SM IC DRSN BR OVC004 M25/M28 A3040 RMK ST8 SLP310=

TAF CYSY 131838Z 1319/1324 36015G25KT 1/2SM IC BLSN OVC004 TEMPO
1319/1324 3SM BR SCT004 OVC008
RMK NXT FCST WILL BE ISSUED AT 141545Z=
Your time UTC time
Weather data provided by Environment Canada and NAV CANADA